Cactus Peak, Santa Catalina Island Weather observations

Data are for 10 minute period ending at time listed.
 Day   Time   Solar   Ave.   Ave.  Ave.  Vector    Max.   Stn.    Total
  of    of     Rad.   Air    Rel.  Wind   Wind     Wind   Baro.  Precip.
Year   Day            Temp.  Hum.  Speed  Dir.     Gust   Pres.         
2016   (PST)   W/m2    F      %     mph   deg.      mph    mb.     in.  
------------------------------------------------------------------------
 236    3:20    0.0    64   80.0     2    160.5     4.2    999.0   0.00  
 236    3:30    0.0    64   78.1     1    171.5     0.6    999.0   0.00  
 236    3:40    0.0    65   76.4     1    142.3     0.6    999.0   0.00  
 236    3:50    0.0    65   76.6     1    159.9     0.6    999.0   0.00  
 236    4:00    0.0    64   74.8     2    180.7     6.6    999.0   0.00  
 236    4:10    0.0    63   78.9     5    169.5     8.4    999.0   0.00  
 236    4:20    0.0    62   84.8     4    160.1     5.4    999.0   0.00  
 236    4:30    0.0    61   90.9     2    170.9     6.0    999.0   0.00  
 236    4:40    0.0    62   83.6     1    154.5     4.2    999.0   0.00  
 236    4:50    0.0    60   93.6     5    159.8     7.2    999.0   0.00  
 236    5:00    0.0    60   96.2     6    154.4     7.8    999.0   0.00  
 236    5:10    0.0    60   96.8     6    168.9     8.4    999.0   0.00  
 236    5:20    0.0    60   97.0     1    148.3     4.8    999.0   0.00  
 236    5:30    3.0    59   95.4     1     24.7     0.6    999.0   0.00  
 236    5:40    9.0    62   78.7     1     74.4     0.6    999.0   0.00  
 236    5:50   23.0    67   44.3     2    162.9     5.4    999.0   0.00  
 236    6:00   43.0    63   72.5     4    154.9     6.6    999.0   0.00  
 236    6:10   73.0    67   48.4     2    152.3     5.4    999.0   0.00  
 236    6:20  108.0    69   33.4     1    144.3     1.8    999.0   0.00  
 236    6:30  138.0    70   37.4     2    159.7     5.4    999.0   0.00  
 236    6:40  170.0    67   57.1     4    160.3     7.8    999.0   0.00  
 236    6:50  191.0    62   91.9     8    168.5    10.2    999.0   0.00  
 236    7:00  222.0    62   94.7     6    166.1     8.4    999.0   0.00  
 236    7:10  265.0    62   94.8     3    166.7     7.2    999.0   0.00  
 236    7:20  303.0    65   91.0     1      0.5     1.8    999.0   0.00  
 236    7:30  336.0    67   83.3     1    181.4     4.2    999.0   0.00  
 236    7:40  369.0    67   81.3     1    222.0     3.6    999.0   0.00  
 236    7:50  398.0    66   86.5     3    169.3     6.6    999.0   0.00  
 236    8:00  430.0    66   88.2     3    170.7     6.0    999.0   0.00  
 236    8:10  462.0    66   86.9     3    175.3     5.4    999.0   0.00  
 236    8:20  496.0    66   87.5     4    167.4     6.6    999.0   0.00  
 236    8:30  528.0    66   87.0     3    188.9     5.4    999.0   0.00  
 236    8:40  558.0    65   87.8     5    169.5     8.4    999.0   0.00  
 236    8:50  589.0    65   88.0     5    171.8     9.0    999.0   0.00  
 236    9:00  616.0    65   87.9     8    177.2    11.3    999.0   0.00  
 236    9:10  642.0    65   88.4     5    174.0     9.6    999.0   0.00  
 236    9:20  671.0    67   84.3     1    173.6     6.6    999.0   0.00  
 236    9:30  697.0    68   83.2     3    175.0     7.2    999.0   0.00  
 236    9:40  720.0    69   80.0     2    189.8     6.0    999.0   0.00  
 236    9:50  745.0    72   72.7     1    280.4     5.4    999.0   0.00  
 236   10:00  768.0    72   72.5     1    244.0     4.8    999.0   0.00  
 236   10:10  788.0    71   74.8     3    168.2     9.6    999.0   0.00  
 236   10:20  805.0    72   73.7     3    298.5     9.0    999.0   0.00  
 236   10:30  822.0    73   70.1     2    336.4     9.0    999.0   0.00  
 236   10:40  837.0    73   69.9     4    344.6     9.6    999.0   0.00  
 236   10:50  848.0    74   69.6     2    328.8     6.6    999.0   0.00  
 236   11:00  863.0    75   67.3     2    330.7     6.6    999.0   0.00  
 236   11:10  872.0    73   71.4     4    172.6     9.0    999.0   0.00  
 236   11:20  881.0    74   68.7     2    219.3     6.0    999.0   0.00  
 236   11:30  890.0    75   66.2     2    180.3     5.4    999.0   0.00  
 236   11:40  896.0    74   68.8     3    173.8     7.2    999.0   0.00  
 236   11:50  898.0    72   72.2     6    175.5    10.2    999.0   0.00  
 236   12:00  898.0    71   74.9     6    170.1    11.3    999.0   0.00  
 236   12:10  898.0    73   72.1     5    170.2     8.4    999.0   0.00  
 236   12:20  897.0    75   67.9     3    165.8     7.2    999.0   0.00  
 236   12:30  893.0    73   71.1     5    159.8     9.0    999.0   0.00  
 236   12:40  885.0    75   67.6     2     34.4     6.0    999.0   0.00  
 236   12:50  882.0    77   63.7     2    342.2     7.2    999.0   0.00  
 236   13:00  875.0    77   62.0     1    290.7     3.0    999.0   0.00  
 236   13:10  866.0    78   60.3     2    314.1     6.0    999.0   0.00  
 236   13:20  852.0    77   61.3     2    295.1     5.4    999.0   0.00  
 236   13:30  839.0    76   62.8     3    317.7     7.8    999.0   0.00  
 236   13:40  823.0    76   64.6     5    339.6     9.0    999.0   0.00  
 236   13:50  808.0    75   66.1     7    337.4    10.2    999.0   0.00  
 236   14:00  788.0    74   69.9     7    329.1    10.8    999.0   0.00  
 236   14:10  768.0    73   71.4     7    329.4     9.6    999.0   0.00  
 236   14:20  749.0    73   71.3     7    333.8     9.6    999.0   0.00  
 236   14:30  726.0    72   72.2     7    330.6     9.0    999.0   0.00  
 236   14:40  702.0    74   68.5     5    329.9     7.8    999.0   0.00  
 236   14:50  677.0    74   66.6     4    336.6     7.2    999.0   0.00  
 236   15:00  650.0    75   65.8     4    327.5     7.8    999.0   0.00  
 236   15:10  622.0    75   65.9     5    338.5     7.2    999.0   0.00  
 236   15:20  592.0    75   66.7     2    325.4     6.0    999.0   0.00  
 236   15:30  561.0    75   67.0     4    327.3     6.6    999.0   0.00  
 236   15:40  530.0    73   71.0     6    328.4     9.0    999.0   0.00  
 236   15:50  497.0    71   75.5     6    331.4     9.0    999.0   0.00  
 236   16:00  466.0    70   78.4     6    324.9    10.2    999.0   0.00  
 236   16:10  434.0    71   77.2     5    329.5     7.2    999.0   0.00  
 236   16:20  401.0    70   77.7     5    326.1     7.8    999.0   0.00  
 236   16:30  368.0    69   79.7     6    334.8     8.4    999.0   0.00  
 236   16:40  334.0    69   80.0     6    326.6     8.4    999.0   0.00  
 236   16:50  299.0    68   81.0     6    325.4     7.8    999.0   0.00  
 236   17:00  267.0    68   82.8     7    333.4     9.6    999.0   0.00  
 236   17:10  233.0    67   83.3     7    328.8     9.6    999.0   0.00  
 236   17:20  198.0    66   82.9     7    328.6     8.4    999.0   0.00  
 236   17:30  164.0    66   83.3     7    335.9     9.6    999.0   0.00  
 236   17:40  133.0    65   85.8     8    330.5     9.6    999.0   0.00  
 236   17:50  103.0    64   88.7     8    334.4    10.2    999.0   0.00  
 236   18:00   73.0    64   91.0     7    345.2     8.4    999.0   0.00  
 236   18:10   45.0    63   91.6     7    348.1     8.4    999.0   0.00  
 236   18:20   26.0    63   91.5     5      6.4     7.2    999.0   0.00  
 236   18:30   12.0    64   82.2     4      2.6     5.4    999.0   0.00  
 236   18:40    3.0    65   79.8     5    353.3     7.2    999.0   0.00  
 236   18:50    1.0    63   90.1     6    344.3     7.2    999.0   0.00  
 236   19:00    0.0    62   93.7     6    338.9     9.0    999.0   0.00  
 236   19:10    0.0    62   95.1     4    329.6     6.0    999.0   0.00  
 236   19:20    0.0    62   95.7     5    328.4     7.2    999.0   0.00  
 236   19:30    0.0    61   96.2     8    335.8     9.6    999.0   0.00  
 236   19:40    0.0    61   96.7     8    346.8    10.8    999.0   0.00  
 236   19:50    0.0    61   97.0    10    348.5    11.9    999.0   0.00  
 236   20:00    0.0    61   97.1    10    344.3    11.9    999.0   0.00  
 236   20:10    0.0    61   97.3    10    352.2    13.1    999.0   0.00  
 236   20:20    0.0    61   97.4     9    343.3    11.3    999.0   0.00  
 236   20:30    0.0    61   97.5     8    346.3    10.2    999.0   0.00  
 236   20:40    0.0    61   97.6     6    357.8     7.8    999.0   0.00  
 236   20:50    0.0    60   97.6     5    358.0     6.0    999.0   0.00  
 236   21:00    0.0    60   97.7     5    358.3     5.4    999.0   0.00  
 236   21:10    0.0    60   97.8     7    351.4     8.4    999.0   0.00  
 236   21:20    0.0    60   97.8     7    353.0     8.4    999.0   0.00  
 236   21:30    0.0    60   97.8     8      6.5     9.6    999.0   0.00  
 236   21:40    0.0    62   88.3     7      5.4     9.0    999.0   0.00  
 236   21:50    0.0    65   78.8     7      3.2     7.8    999.0   0.00  
 236   22:00    0.0    65   76.9     6     14.8     7.8    999.0   0.00  
 236   22:10    0.0    67   67.8     4    345.9     7.2    999.0   0.00  
 236   22:20    0.0    68   66.0     7    352.0     7.2    999.0   0.00  
 236   22:30    0.0    68   62.4     7    338.0     7.8    999.0   0.00  
 236   22:40    0.0    70   51.3     4    352.3     7.2    999.0   0.00  
 236   22:50    0.0    70   48.2     2     56.2     4.8    999.0   0.00  
 236   23:00    0.0    70   48.8     3     62.5     4.8    999.0   0.00  
 236   23:10    0.0    72   43.5     3    121.9     4.8    999.0   0.00  
 236   23:20    0.0    72   41.8     1    154.7     0.6    999.0   0.00  
 236   23:30    0.0    72   42.7     1    167.2     1.2    999.0   0.00  
 236   23:40    0.0    71   47.5     1    213.7     0.6    999.0   0.00  
 236   23:50    0.0    70   54.7     1     75.7     1.2    999.0   0.00  
 237    0:00    0.0    70   50.0     2    152.1     4.2    999.0   0.00  
 237    0:10    0.0    69   53.7     2    150.8     4.8    999.0   0.00  
 237    0:20    0.0    68   56.0     4    165.7     5.4    999.0   0.00  
 237    0:30    0.0    67   62.3     4    166.0     6.0    999.0   0.00  
 237    0:40    0.0    68   62.0     1    146.9     2.4    999.0   0.00  
 237    0:50    0.0    68   62.2     1    139.0     2.4    999.0   0.00  
 237    1:00    0.0    66   66.3     1     40.8     0.6    999.0   0.00  
 237    1:10    0.0    67   66.8     1    135.8     2.4    999.0   0.00  
 237    1:20    0.0    66   68.8     1     59.8     1.2    999.0   0.00  
 237    1:30    0.0    65   72.7     1     42.2     0.6    999.0   0.00  
 237    1:40    0.0    63   83.9     3     61.2     7.2    999.0   0.00  
 237    1:50    0.0    64   82.4     5     56.3     6.6    999.0   0.00  
 237    2:00    0.0    62   90.2     5     32.7     7.8    999.0   0.00  
 237    2:10    0.0    62   92.2     1     85.0     4.2    999.0   0.00  
 237    2:20    0.0    62   93.8     1    124.9     0.6    999.0   0.00  
 237    2:30    0.0    62   94.9     1    150.2     0.6    999.0   0.00  
 237    2:40    0.0    61   95.4     1     61.0     3.6    999.0   0.00  
 237    2:50    0.0    61   96.1     5     30.6     6.6    999.0   0.00  
 237    3:00    0.0    61   96.7     5     28.2     7.2    999.0   0.00  
 237    3:10    0.0    61   96.9     6     33.5     9.0    999.0   0.00  

Return to Cactus Peak graphs page.


Western Regional Climate Center,wrcc@dri.edu